sensor_id;sensor_type;location;lat;lon;timestamp;P1;durP1;ratioP1;P2;durP2;ratioP2
76023;SDS011;64719;52.124;6.226;2023-04-15T00:02:20;6.80;;;4.18;;
76023;SDS011;64719;52.124;6.226;2023-04-15T00:04:47;9.77;;;4.78;;
76023;SDS011;64719;52.124;6.226;2023-04-15T00:07:13;12.50;;;4.43;;
76023;SDS011;64719;52.124;6.226;2023-04-15T00:09:41;8.82;;;4.88;;
76023;SDS011;64719;52.124;6.226;2023-04-15T00:12:08;6.93;;;4.00;;
76023;SDS011;64719;52.124;6.226;2023-04-15T00:14:36;8.20;;;4.20;;
76023;SDS011;64719;52.124;6.226;2023-04-15T00:17:02;6.57;;;4.30;;
76023;SDS011;64719;52.124;6.226;2023-04-15T00:19:29;6.03;;;4.20;;
76023;SDS011;64719;52.124;6.226;2023-04-15T00:21:56;10.45;;;4.70;;
76023;SDS011;64719;52.124;6.226;2023-04-15T00:24:23;6.72;;;4.30;;
76023;SDS011;64719;52.124;6.226;2023-04-15T00:26:50;7.43;;;4.57;;
76023;SDS011;64719;52.124;6.226;2023-04-15T00:29:17;9.10;;;4.60;;
76023;SDS011;64719;52.124;6.226;2023-04-15T00:31:44;7.63;;;4.22;;
76023;SDS011;64719;52.124;6.226;2023-04-15T00:34:10;8.52;;;4.05;;
76023;SDS011;64719;52.124;6.226;2023-04-15T00:36:37;8.75;;;4.30;;
76023;SDS011;64719;52.124;6.226;2023-04-15T00:39:04;7.60;;;4.68;;
76023;SDS011;64719;52.124;6.226;2023-04-15T00:41:30;7.30;;;4.35;;
76023;SDS011;64719;52.124;6.226;2023-04-15T00:43:59;5.93;;;4.07;;
76023;SDS011;64719;52.124;6.226;2023-04-15T00:46:27;9.07;;;4.72;;
76023;SDS011;64719;52.124;6.226;2023-04-15T00:48:56;7.88;;;4.72;;
76023;SDS011;64719;52.124;6.226;2023-04-15T00:51:23;6.93;;;4.18;;
76023;SDS011;64719;52.124;6.226;2023-04-15T00:53:50;9.02;;;4.53;;
76023;SDS011;64719;52.124;6.226;2023-04-15T00:56:17;10.25;;;4.63;;
76023;SDS011;64719;52.124;6.226;2023-04-15T00:58:45;11.18;;;4.68;;
76023;SDS011;64719;52.124;6.226;2023-04-15T01:01:14;9.75;;;4.95;;
76023;SDS011;64719;52.124;6.226;2023-04-15T01:03:40;6.88;;;4.07;;
76023;SDS011;64719;52.124;6.226;2023-04-15T01:06:07;9.50;;;5.13;;
76023;SDS011;64719;52.124;6.226;2023-04-15T01:08:34;6.70;;;4.50;;
76023;SDS011;64719;52.124;6.226;2023-04-15T01:11:00;9.43;;;5.50;;
76023;SDS011;64719;52.124;6.226;2023-04-15T01:13:28;10.15;;;5.05;;
76023;SDS011;64719;52.124;6.226;2023-04-15T01:15:56;10.18;;;4.93;;
76023;SDS011;64719;52.124;6.226;2023-04-15T01:18:24;7.55;;;4.90;;
76023;SDS011;64719;52.124;6.226;2023-04-15T01:20:51;8.32;;;5.38;;
76023;SDS011;64719;52.124;6.226;2023-04-15T01:23:18;9.23;;;5.50;;
76023;SDS011;64719;52.124;6.226;2023-04-15T01:25:47;9.77;;;4.97;;
76023;SDS011;64719;52.124;6.226;2023-04-15T01:30:41;10.48;;;5.05;;
76023;SDS011;64719;52.124;6.226;2023-04-15T01:33:08;9.63;;;5.00;;
76023;SDS011;64719;52.124;6.226;2023-04-15T01:35:35;8.07;;;4.75;;
76023;SDS011;64719;52.124;6.226;2023-04-15T01:38:03;10.82;;;5.65;;
76023;SDS011;64719;52.124;6.226;2023-04-15T01:40:31;8.02;;;4.95;;
76023;SDS011;64719;52.124;6.226;2023-04-15T01:42:59;9.75;;;5.40;;
76023;SDS011;64719;52.124;6.226;2023-04-15T01:45:26;8.40;;;4.68;;
76023;SDS011;64719;52.124;6.226;2023-04-15T01:47:52;10.18;;;5.97;;
76023;SDS011;64719;52.124;6.226;2023-04-15T01:50:19;8.73;;;5.30;;
76023;SDS011;64719;52.124;6.226;2023-04-15T01:52:46;9.85;;;5.47;;
76023;SDS011;64719;52.124;6.226;2023-04-15T01:55:12;9.38;;;5.40;;
76023;SDS011;64719;52.124;6.226;2023-04-15T01:57:40;10.32;;;6.20;;
76023;SDS011;64719;52.124;6.226;2023-04-15T02:00:08;10.18;;;6.05;;
76023;SDS011;64719;52.124;6.226;2023-04-15T02:02:35;9.32;;;5.88;;
76023;SDS011;64719;52.124;6.226;2023-04-15T02:05:02;12.80;;;6.50;;
76023;SDS011;64719;52.124;6.226;2023-04-15T02:07:29;10.18;;;5.93;;
76023;SDS011;64719;52.124;6.226;2023-04-15T02:09:56;11.68;;;6.10;;
76023;SDS011;64719;52.124;6.226;2023-04-15T02:12:23;10.88;;;6.40;;
76023;SDS011;64719;52.124;6.226;2023-04-15T02:14:50;11.27;;;6.05;;
76023;SDS011;64719;52.124;6.226;2023-04-15T02:17:17;12.35;;;6.05;;
76023;SDS011;64719;52.124;6.226;2023-04-15T02:19:44;12.27;;;6.28;;
76023;SDS011;64719;52.124;6.226;2023-04-15T02:22:10;11.52;;;6.00;;
76023;SDS011;64719;52.124;6.226;2023-04-15T02:24:42;12.27;;;6.93;;
76023;SDS011;64719;52.124;6.226;2023-04-15T02:27:10;10.15;;;6.25;;
76023;SDS011;64719;52.124;6.226;2023-04-15T02:29:36;14.82;;;7.30;;
76023;SDS011;64719;52.124;6.226;2023-04-15T02:32:03;9.02;;;5.70;;
76023;SDS011;64719;52.124;6.226;2023-04-15T02:34:31;12.30;;;6.78;;
76023;SDS011;64719;52.124;6.226;2023-04-15T02:36:58;13.25;;;7.20;;
76023;SDS011;64719;52.124;6.226;2023-04-15T02:39:25;13.32;;;7.05;;
76023;SDS011;64719;52.124;6.226;2023-04-15T02:41:51;12.20;;;6.80;;
76023;SDS011;64719;52.124;6.226;2023-04-15T02:44:18;12.05;;;6.68;;
76023;SDS011;64719;52.124;6.226;2023-04-15T02:46:46;14.25;;;7.15;;
76023;SDS011;64719;52.124;6.226;2023-04-15T02:49:14;11.93;;;7.43;;
76023;SDS011;64719;52.124;6.226;2023-04-15T02:51:42;11.75;;;6.82;;
76023;SDS011;64719;52.124;6.226;2023-04-15T02:54:11;11.73;;;6.45;;
76023;SDS011;64719;52.124;6.226;2023-04-15T02:56:38;11.82;;;6.90;;
76023;SDS011;64719;52.124;6.226;2023-04-15T02:59:05;12.35;;;7.20;;
76023;SDS011;64719;52.124;6.226;2023-04-15T03:01:31;12.00;;;6.75;;
76023;SDS011;64719;52.124;6.226;2023-04-15T03:03:58;13.52;;;7.10;;
76023;SDS011;64719;52.124;6.226;2023-04-15T03:06:24;10.70;;;6.80;;
76023;SDS011;64719;52.124;6.226;2023-04-15T03:08:52;13.77;;;6.75;;
76023;SDS011;64719;52.124;6.226;2023-04-15T03:11:19;13.35;;;7.68;;
76023;SDS011;64719;52.124;6.226;2023-04-15T03:13:45;12.23;;;7.03;;
76023;SDS011;64719;52.124;6.226;2023-04-15T03:16:12;15.60;;;7.45;;
76023;SDS011;64719;52.124;6.226;2023-04-15T03:18:38;12.52;;;7.60;;
76023;SDS011;64719;52.124;6.226;2023-04-15T03:21:05;14.90;;;7.55;;
76023;SDS011;64719;52.124;6.226;2023-04-15T03:23:32;11.57;;;6.97;;
76023;SDS011;64719;52.124;6.226;2023-04-15T03:26:01;11.88;;;6.97;;
76023;SDS011;64719;52.124;6.226;2023-04-15T03:28:28;12.32;;;7.07;;
76023;SDS011;64719;52.124;6.226;2023-04-15T03:30:56;13.38;;;7.40;;
76023;SDS011;64719;52.124;6.226;2023-04-15T03:33:23;13.02;;;6.97;;
76023;SDS011;64719;52.124;6.226;2023-04-15T03:35:50;13.40;;;7.93;;
76023;SDS011;64719;52.124;6.226;2023-04-15T03:38:17;14.07;;;7.63;;
76023;SDS011;64719;52.124;6.226;2023-04-15T03:40:44;14.77;;;7.45;;
76023;SDS011;64719;52.124;6.226;2023-04-15T03:43:13;12.45;;;7.50;;
76023;SDS011;64719;52.124;6.226;2023-04-15T03:45:39;15.95;;;7.25;;
76023;SDS011;64719;52.124;6.226;2023-04-15T03:48:06;12.55;;;7.38;;
76023;SDS011;64719;52.124;6.226;2023-04-15T03:50:32;13.40;;;7.57;;
76023;SDS011;64719;52.124;6.226;2023-04-15T03:52:59;11.63;;;6.88;;
76023;SDS011;64719;52.124;6.226;2023-04-15T03:55:25;12.90;;;7.57;;
76023;SDS011;64719;52.124;6.226;2023-04-15T03:57:52;13.80;;;7.82;;
76023;SDS011;64719;52.124;6.226;2023-04-15T04:00:19;15.05;;;7.43;;
76023;SDS011;64719;52.124;6.226;2023-04-15T04:02:46;13.27;;;8.10;;
76023;SDS011;64719;52.124;6.226;2023-04-15T04:05:13;16.45;;;8.13;;
76023;SDS011;64719;52.124;6.226;2023-04-15T04:07:39;12.73;;;7.80;;
76023;SDS011;64719;52.124;6.226;2023-04-15T04:10:06;12.60;;;7.68;;
76023;SDS011;64719;52.124;6.226;2023-04-15T04:12:33;15.18;;;8.07;;
76023;SDS011;64719;52.124;6.226;2023-04-15T04:15:00;14.77;;;8.27;;
76023;SDS011;64719;52.124;6.226;2023-04-15T04:17:28;14.20;;;8.27;;
76023;SDS011;64719;52.124;6.226;2023-04-15T04:19:54;16.73;;;8.85;;
76023;SDS011;64719;52.124;6.226;2023-04-15T04:22:21;15.35;;;7.75;;
76023;SDS011;64719;52.124;6.226;2023-04-15T04:24:48;13.85;;;8.43;;
76023;SDS011;64719;52.124;6.226;2023-04-15T04:27:15;16.95;;;8.10;;
76023;SDS011;64719;52.124;6.226;2023-04-15T04:29:42;15.85;;;9.18;;
76023;SDS011;64719;52.124;6.226;2023-04-15T04:32:08;18.02;;;8.45;;
76023;SDS011;64719;52.124;6.226;2023-04-15T04:34:37;16.13;;;8.40;;
76023;SDS011;64719;52.124;6.226;2023-04-15T04:37:03;16.75;;;8.82;;
76023;SDS011;64719;52.124;6.226;2023-04-15T04:39:30;15.32;;;8.30;;
76023;SDS011;64719;52.124;6.226;2023-04-15T04:41:57;13.98;;;8.23;;
76023;SDS011;64719;52.124;6.226;2023-04-15T04:44:25;14.68;;;8.43;;
76023;SDS011;64719;52.124;6.226;2023-04-15T04:46:51;15.68;;;8.25;;
76023;SDS011;64719;52.124;6.226;2023-04-15T04:49:18;16.02;;;8.05;;
76023;SDS011;64719;52.124;6.226;2023-04-15T04:51:46;16.02;;;9.05;;
76023;SDS011;64719;52.124;6.226;2023-04-15T04:54:12;17.13;;;8.63;;
76023;SDS011;64719;52.124;6.226;2023-04-15T04:56:40;14.73;;;8.07;;
76023;SDS011;64719;52.124;6.226;2023-04-15T04:59:06;15.50;;;8.13;;
76023;SDS011;64719;52.124;6.226;2023-04-15T05:01:33;16.40;;;8.95;;
76023;SDS011;64719;52.124;6.226;2023-04-15T05:04:00;18.35;;;8.52;;
76023;SDS011;64719;52.124;6.226;2023-04-15T05:06:27;15.85;;;8.77;;
76023;SDS011;64719;52.124;6.226;2023-04-15T05:08:56;17.10;;;8.45;;
76023;SDS011;64719;52.124;6.226;2023-04-15T05:11:22;21.83;;;8.65;;
76023;SDS011;64719;52.124;6.226;2023-04-15T05:13:49;18.13;;;8.93;;
76023;SDS011;64719;52.124;6.226;2023-04-15T05:16:15;16.60;;;8.70;;
76023;SDS011;64719;52.124;6.226;2023-04-15T05:18:43;17.35;;;9.05;;
76023;SDS011;64719;52.124;6.226;2023-04-15T05:21:10;13.05;;;7.60;;
76023;SDS011;64719;52.124;6.226;2023-04-15T05:23:36;13.23;;;8.63;;
76023;SDS011;64719;52.124;6.226;2023-04-15T05:26:04;15.40;;;8.68;;
76023;SDS011;64719;52.124;6.226;2023-04-15T05:28:31;16.27;;;8.27;;
76023;SDS011;64719;52.124;6.226;2023-04-15T05:30:57;13.70;;;7.88;;
76023;SDS011;64719;52.124;6.226;2023-04-15T05:33:24;15.13;;;9.13;;
76023;SDS011;64719;52.124;6.226;2023-04-15T05:35:51;15.07;;;9.38;;
76023;SDS011;64719;52.124;6.226;2023-04-15T05:38:17;15.85;;;8.48;;
76023;SDS011;64719;52.124;6.226;2023-04-15T05:40:44;12.90;;;7.25;;
76023;SDS011;64719;52.124;6.226;2023-04-15T05:43:12;14.77;;;8.10;;
76023;SDS011;64719;52.124;6.226;2023-04-15T05:45:38;16.55;;;8.40;;
76023;SDS011;64719;52.124;6.226;2023-04-15T05:48:05;12.88;;;8.05;;
76023;SDS011;64719;52.124;6.226;2023-04-15T05:50:32;13.48;;;7.80;;
76023;SDS011;64719;52.124;6.226;2023-04-15T05:52:58;12.27;;;7.57;;
76023;SDS011;64719;52.124;6.226;2023-04-15T05:55:26;8.77;;;6.28;;
76023;SDS011;64719;52.124;6.226;2023-04-15T05:57:52;12.18;;;7.05;;
76023;SDS011;64719;52.124;6.226;2023-04-15T06:00:20;13.13;;;6.90;;
76023;SDS011;64719;52.124;6.226;2023-04-15T06:02:47;10.98;;;6.95;;
76023;SDS011;64719;52.124;6.226;2023-04-15T06:05:13;9.82;;;7.00;;
76023;SDS011;64719;52.124;6.226;2023-04-15T06:07:40;9.85;;;5.78;;
76023;SDS011;64719;52.124;6.226;2023-04-15T06:10:08;9.95;;;6.45;;
76023;SDS011;64719;52.124;6.226;2023-04-15T06:12:35;10.15;;;6.43;;
76023;SDS011;64719;52.124;6.226;2023-04-15T06:15:01;8.90;;;6.15;;
76023;SDS011;64719;52.124;6.226;2023-04-15T06:17:29;9.15;;;6.43;;
76023;SDS011;64719;52.124;6.226;2023-04-15T06:19:56;9.40;;;6.68;;
76023;SDS011;64719;52.124;6.226;2023-04-15T06:22:22;9.45;;;6.60;;
76023;SDS011;64719;52.124;6.226;2023-04-15T06:24:49;10.50;;;7.50;;
76023;SDS011;64719;52.124;6.226;2023-04-15T06:27:16;11.57;;;6.88;;
76023;SDS011;64719;52.124;6.226;2023-04-15T06:29:43;11.65;;;7.63;;
76023;SDS011;64719;52.124;6.226;2023-04-15T06:32:09;11.23;;;7.80;;
76023;SDS011;64719;52.124;6.226;2023-04-15T06:34:37;11.60;;;7.82;;
76023;SDS011;64719;52.124;6.226;2023-04-15T06:37:04;12.23;;;7.47;;
76023;SDS011;64719;52.124;6.226;2023-04-15T06:39:30;13.40;;;8.20;;
76023;SDS011;64719;52.124;6.226;2023-04-15T06:41:57;13.32;;;7.38;;
76023;SDS011;64719;52.124;6.226;2023-04-15T06:44:23;16.40;;;8.70;;
76023;SDS011;64719;52.124;6.226;2023-04-15T06:46:50;13.43;;;8.52;;
76023;SDS011;64719;52.124;6.226;2023-04-15T06:49:16;13.02;;;8.02;;
76023;SDS011;64719;52.124;6.226;2023-04-15T06:51:44;12.30;;;8.35;;
76023;SDS011;64719;52.124;6.226;2023-04-15T06:54:11;13.13;;;7.90;;
76023;SDS011;64719;52.124;6.226;2023-04-15T06:56:37;14.95;;;8.00;;
76023;SDS011;64719;52.124;6.226;2023-04-15T06:59:04;12.43;;;7.85;;
76023;SDS011;64719;52.124;6.226;2023-04-15T07:01:30;13.52;;;8.35;;
76023;SDS011;64719;52.124;6.226;2023-04-15T07:03:57;15.10;;;8.95;;
76023;SDS011;64719;52.124;6.226;2023-04-15T07:06:23;14.55;;;8.23;;
76023;SDS011;64719;52.124;6.226;2023-04-15T07:08:51;15.77;;;9.18;;
76023;SDS011;64719;52.124;6.226;2023-04-15T07:11:18;15.20;;;8.77;;
76023;SDS011;64719;52.124;6.226;2023-04-15T07:13:46;14.70;;;8.80;;
76023;SDS011;64719;52.124;6.226;2023-04-15T07:16:12;12.88;;;7.38;;
76023;SDS011;64719;52.124;6.226;2023-04-15T07:18:39;11.25;;;7.40;;
76023;SDS011;64719;52.124;6.226;2023-04-15T07:21:05;13.20;;;7.90;;
76023;SDS011;64719;52.124;6.226;2023-04-15T07:23:32;14.15;;;7.78;;
76023;SDS011;64719;52.124;6.226;2023-04-15T07:26:00;10.77;;;7.00;;
76023;SDS011;64719;52.124;6.226;2023-04-15T07:28:26;11.55;;;7.35;;
76023;SDS011;64719;52.124;6.226;2023-04-15T07:30:53;13.52;;;7.22;;
76023;SDS011;64719;52.124;6.226;2023-04-15T07:33:21;11.65;;;7.25;;
76023;SDS011;64719;52.124;6.226;2023-04-15T07:35:47;13.43;;;7.32;;
76023;SDS011;64719;52.124;6.226;2023-04-15T07:38:14;13.30;;;6.97;;
76023;SDS011;64719;52.124;6.226;2023-04-15T07:40:40;11.18;;;7.28;;
76023;SDS011;64719;52.124;6.226;2023-04-15T07:43:08;12.05;;;7.00;;
76023;SDS011;64719;52.124;6.226;2023-04-15T07:45:35;10.95;;;7.22;;
76023;SDS011;64719;52.124;6.226;2023-04-15T07:48:01;14.23;;;7.93;;
76023;SDS011;64719;52.124;6.226;2023-04-15T07:50:28;7.75;;;6.15;;
76023;SDS011;64719;52.124;6.226;2023-04-15T07:52:55;10.20;;;6.32;;
76023;SDS011;64719;52.124;6.226;2023-04-15T07:55:21;8.18;;;6.03;;
76023;SDS011;64719;52.124;6.226;2023-04-15T07:57:48;7.78;;;5.75;;
76023;SDS011;64719;52.124;6.226;2023-04-15T08:00:17;7.75;;;5.68;;
76023;SDS011;64719;52.124;6.226;2023-04-15T08:02:44;7.95;;;6.15;;
76023;SDS011;64719;52.124;6.226;2023-04-15T08:05:12;9.70;;;5.97;;
76023;SDS011;64719;52.124;6.226;2023-04-15T08:07:39;6.57;;;4.82;;
76023;SDS011;64719;52.124;6.226;2023-04-15T08:10:05;6.72;;;4.57;;
76023;SDS011;64719;52.124;6.226;2023-04-15T08:12:33;6.78;;;4.68;;
76023;SDS011;64719;52.124;6.226;2023-04-15T08:14:59;6.75;;;5.03;;
76023;SDS011;64719;52.124;6.226;2023-04-15T08:17:28;7.40;;;5.05;;
76023;SDS011;64719;52.124;6.226;2023-04-15T08:19:54;6.82;;;4.28;;
76023;SDS011;64719;52.124;6.226;2023-04-15T08:22:21;6.65;;;4.65;;
76023;SDS011;64719;52.124;6.226;2023-04-15T08:24:48;7.90;;;4.50;;
76023;SDS011;64719;52.124;6.226;2023-04-15T08:27:15;7.18;;;5.05;;
76023;SDS011;64719;52.124;6.226;2023-04-15T08:29:42;8.05;;;4.43;;
76023;SDS011;64719;52.124;6.226;2023-04-15T08:32:09;6.63;;;4.43;;
76023;SDS011;64719;52.124;6.226;2023-04-15T08:34:37;6.72;;;4.20;;
76023;SDS011;64719;52.124;6.226;2023-04-15T08:37:04;6.97;;;4.57;;
76023;SDS011;64719;52.124;6.226;2023-04-15T08:39:31;7.07;;;4.50;;
76023;SDS011;64719;52.124;6.226;2023-04-15T08:41:59;7.13;;;4.20;;
76023;SDS011;64719;52.124;6.226;2023-04-15T08:44:28;6.28;;;3.88;;
76023;SDS011;64719;52.124;6.226;2023-04-15T08:46:59;8.40;;;4.45;;
76023;SDS011;64719;52.124;6.226;2023-04-15T08:49:27;7.30;;;4.60;;
76023;SDS011;64719;52.124;6.226;2023-04-15T08:51:55;10.00;;;4.85;;
76023;SDS011;64719;52.124;6.226;2023-04-15T08:54:24;6.30;;;4.55;;
76023;SDS011;64719;52.124;6.226;2023-04-15T08:56:51;7.03;;;4.47;;
76023;SDS011;64719;52.124;6.226;2023-04-15T08:59:18;6.57;;;4.35;;
76023;SDS011;64719;52.124;6.226;2023-04-15T09:01:46;8.40;;;4.35;;
76023;SDS011;64719;52.124;6.226;2023-04-15T09:04:14;8.02;;;4.70;;
76023;SDS011;64719;52.124;6.226;2023-04-15T09:06:42;6.28;;;4.45;;
76023;SDS011;64719;52.124;6.226;2023-04-15T09:09:10;7.18;;;4.28;;
76023;SDS011;64719;52.124;6.226;2023-04-15T09:11:38;6.88;;;4.85;;
76023;SDS011;64719;52.124;6.226;2023-04-15T09:14:04;8.70;;;4.70;;
76023;SDS011;64719;52.124;6.226;2023-04-15T09:16:31;8.60;;;5.22;;
76023;SDS011;64719;52.124;6.226;2023-04-15T09:19:21;7.32;;;4.40;;
76023;SDS011;64719;52.124;6.226;2023-04-15T09:21:49;6.32;;;4.82;;
76023;SDS011;64719;52.124;6.226;2023-04-15T09:24:17;6.70;;;5.03;;
76023;SDS011;64719;52.124;6.226;2023-04-15T09:26:44;6.05;;;4.22;;
76023;SDS011;64719;52.124;6.226;2023-04-15T09:29:11;6.20;;;4.82;;
76023;SDS011;64719;52.124;6.226;2023-04-15T09:31:38;7.78;;;5.22;;
76023;SDS011;64719;52.124;6.226;2023-04-15T09:34:05;6.97;;;4.47;;
76023;SDS011;64719;52.124;6.226;2023-04-15T09:36:37;5.40;;;3.72;;
76023;SDS011;64719;52.124;6.226;2023-04-15T09:39:18;5.47;;;3.75;;
76023;SDS011;64719;52.124;6.226;2023-04-15T09:46:47;6.25;;;3.38;;
76023;SDS011;64719;52.124;6.226;2023-04-15T09:49:13;5.65;;;3.60;;
76023;SDS011;64719;52.124;6.226;2023-04-15T09:56:36;5.35;;;3.70;;
76023;SDS011;64719;52.124;6.226;2023-04-15T09:59:06;4.88;;;3.08;;
76023;SDS011;64719;52.124;6.226;2023-04-15T10:01:33;4.28;;;2.88;;
76023;SDS011;64719;52.124;6.226;2023-04-15T10:04:00;4.78;;;3.40;;
76023;SDS011;64719;52.124;6.226;2023-04-15T10:06:29;5.43;;;3.47;;
76023;SDS011;64719;52.124;6.226;2023-04-15T10:08:56;7.80;;;3.47;;
76023;SDS011;64719;52.124;6.226;2023-04-15T10:11:23;5.22;;;3.45;;
76023;SDS011;64719;52.124;6.226;2023-04-15T10:13:54;8.00;;;3.78;;
76023;SDS011;64719;52.124;6.226;2023-04-15T10:16:23;5.18;;;3.30;;
76023;SDS011;64719;52.124;6.226;2023-04-15T10:18:53;6.15;;;3.92;;
76023;SDS011;64719;52.124;6.226;2023-04-15T10:21:21;6.43;;;3.78;;
76023;SDS011;64719;52.124;6.226;2023-04-15T10:23:48;5.53;;;3.47;;
76023;SDS011;64719;52.124;6.226;2023-04-15T10:26:15;7.63;;;3.90;;
76023;SDS011;64719;52.124;6.226;2023-04-15T10:28:42;6.55;;;3.28;;
76023;SDS011;64719;52.124;6.226;2023-04-15T10:31:10;7.35;;;3.90;;
76023;SDS011;64719;52.124;6.226;2023-04-15T10:33:38;5.47;;;3.22;;
76023;SDS011;64719;52.124;6.226;2023-04-15T10:36:06;5.43;;;3.10;;
76023;SDS011;64719;52.124;6.226;2023-04-15T10:38:33;5.70;;;3.58;;
76023;SDS011;64719;52.124;6.226;2023-04-15T10:41:11;5.45;;;3.20;;
76023;SDS011;64719;52.124;6.226;2023-04-15T10:43:39;4.70;;;3.15;;
76023;SDS011;64719;52.124;6.226;2023-04-15T10:46:11;6.88;;;3.10;;
76023;SDS011;64719;52.124;6.226;2023-04-15T10:48:38;4.07;;;2.70;;
76023;SDS011;64719;52.124;6.226;2023-04-15T10:51:12;5.03;;;2.97;;
76023;SDS011;64719;52.124;6.226;2023-04-15T10:53:40;5.65;;;3.25;;
76023;SDS011;64719;52.124;6.226;2023-04-15T10:56:08;4.40;;;3.03;;
76023;SDS011;64719;52.124;6.226;2023-04-15T10:58:39;4.75;;;3.03;;
76023;SDS011;64719;52.124;6.226;2023-04-15T11:01:07;5.57;;;3.13;;
76023;SDS011;64719;52.124;6.226;2023-04-15T11:03:36;4.82;;;2.95;;
76023;SDS011;64719;52.124;6.226;2023-04-15T11:06:07;6.00;;;2.78;;
76023;SDS011;64719;52.124;6.226;2023-04-15T11:08:53;5.13;;;2.85;;
76023;SDS011;64719;52.124;6.226;2023-04-15T11:14:31;5.50;;;2.92;;
76023;SDS011;64719;52.124;6.226;2023-04-15T11:16:58;3.72;;;2.60;;
76023;SDS011;64719;52.124;6.226;2023-04-15T11:19:26;5.20;;;2.72;;
76023;SDS011;64719;52.124;6.226;2023-04-15T11:22:05;4.75;;;2.58;;
76023;SDS011;64719;52.124;6.226;2023-04-15T11:24:32;5.97;;;2.80;;
76023;SDS011;64719;52.124;6.226;2023-04-15T11:26:58;3.42;;;2.17;;
76023;SDS011;64719;52.124;6.226;2023-04-15T11:29:27;6.18;;;2.63;;
76023;SDS011;64719;52.124;6.226;2023-04-15T11:32:00;3.47;;;2.35;;
76023;SDS011;64719;52.124;6.226;2023-04-15T11:34:31;4.57;;;2.05;;
76023;SDS011;64719;52.124;6.226;2023-04-15T11:39:24;4.68;;;2.25;;
76023;SDS011;64719;52.124;6.226;2023-04-15T11:41:50;2.90;;;1.80;;
76023;SDS011;64719;52.124;6.226;2023-04-15T11:44:17;3.67;;;2.00;;
76023;SDS011;64719;52.124;6.226;2023-04-15T11:46:44;3.75;;;2.05;;
76023;SDS011;64719;52.124;6.226;2023-04-15T11:49:10;3.42;;;2.00;;
76023;SDS011;64719;52.124;6.226;2023-04-15T11:51:38;3.50;;;1.90;;
76023;SDS011;64719;52.124;6.226;2023-04-15T11:54:05;2.78;;;1.80;;
76023;SDS011;64719;52.124;6.226;2023-04-15T11:56:31;3.13;;;1.60;;
76023;SDS011;64719;52.124;6.226;2023-04-15T11:58:58;3.45;;;1.70;;
76023;SDS011;64719;52.124;6.226;2023-04-15T12:01:29;2.80;;;1.77;;
76023;SDS011;64719;52.124;6.226;2023-04-15T12:03:56;4.10;;;1.67;;
76023;SDS011;64719;52.124;6.226;2023-04-15T12:06:28;3.50;;;1.60;;
76023;SDS011;64719;52.124;6.226;2023-04-15T12:09:02;4.43;;;1.83;;
76023;SDS011;64719;52.124;6.226;2023-04-15T12:11:34;4.18;;;1.73;;
76023;SDS011;64719;52.124;6.226;2023-04-15T12:14:10;2.60;;;1.90;;
76023;SDS011;64719;52.124;6.226;2023-04-15T12:16:39;5.40;;;1.98;;
76023;SDS011;64719;52.124;6.226;2023-04-15T12:19:08;3.58;;;1.80;;
76023;SDS011;64719;52.124;6.226;2023-04-15T12:21:37;3.17;;;1.55;;
76023;SDS011;64719;52.124;6.226;2023-04-15T12:24:06;2.67;;;1.58;;
76023;SDS011;64719;52.124;6.226;2023-04-15T12:26:35;5.15;;;1.65;;
76023;SDS011;64719;52.124;6.226;2023-04-15T12:29:03;2.90;;;1.70;;
76023;SDS011;64719;52.124;6.226;2023-04-15T12:31:31;3.90;;;1.80;;
76023;SDS011;64719;52.124;6.226;2023-04-15T12:33:58;3.20;;;1.50;;
76023;SDS011;64719;52.124;6.226;2023-04-15T12:36:25;2.97;;;1.67;;
76023;SDS011;64719;52.124;6.226;2023-04-15T12:38:52;2.60;;;1.40;;
76023;SDS011;64719;52.124;6.226;2023-04-15T12:41:20;2.40;;;1.20;;
76023;SDS011;64719;52.124;6.226;2023-04-15T12:43:48;5.38;;;2.08;;
76023;SDS011;64719;52.124;6.226;2023-04-15T12:46:15;3.40;;;1.30;;
76023;SDS011;64719;52.124;6.226;2023-04-15T12:48:42;3.83;;;1.50;;
76023;SDS011;64719;52.124;6.226;2023-04-15T12:51:08;2.33;;;1.38;;
76023;SDS011;64719;52.124;6.226;2023-04-15T12:53:35;1.83;;;1.35;;
76023;SDS011;64719;52.124;6.226;2023-04-15T12:56:01;2.38;;;1.20;;
76023;SDS011;64719;52.124;6.226;2023-04-15T12:58:29;1.85;;;1.05;;
76023;SDS011;64719;52.124;6.226;2023-04-15T13:00:56;3.85;;;1.30;;
76023;SDS011;64719;52.124;6.226;2023-04-15T13:03:22;2.35;;;1.20;;
76023;SDS011;64719;52.124;6.226;2023-04-15T13:05:49;2.45;;;1.10;;
76023;SDS011;64719;52.124;6.226;2023-04-15T13:08:16;3.53;;;1.10;;
76023;SDS011;64719;52.124;6.226;2023-04-15T13:10:43;1.58;;;0.90;;
76023;SDS011;64719;52.124;6.226;2023-04-15T13:13:09;1.88;;;1.30;;
76023;SDS011;64719;52.124;6.226;2023-04-15T13:15:37;2.95;;;1.25;;
76023;SDS011;64719;52.124;6.226;2023-04-15T13:18:04;2.55;;;1.20;;
76023;SDS011;64719;52.124;6.226;2023-04-15T13:20:31;1.65;;;1.10;;
76023;SDS011;64719;52.124;6.226;2023-04-15T13:22:58;2.42;;;1.00;;
76023;SDS011;64719;52.124;6.226;2023-04-15T13:25:24;2.10;;;1.10;;
76023;SDS011;64719;52.124;6.226;2023-04-15T13:27:51;2.78;;;1.30;;
76023;SDS011;64719;52.124;6.226;2023-04-15T13:30:18;2.58;;;1.40;;
76023;SDS011;64719;52.124;6.226;2023-04-15T13:32:48;3.88;;;1.63;;
76023;SDS011;64719;52.124;6.226;2023-04-15T13:35:15;2.85;;;1.50;;
76023;SDS011;64719;52.124;6.226;2023-04-15T13:37:41;2.83;;;1.27;;
76023;SDS011;64719;52.124;6.226;2023-04-15T13:40:08;1.90;;;1.33;;
76023;SDS011;64719;52.124;6.226;2023-04-15T13:42:35;2.35;;;1.40;;
76023;SDS011;64719;52.124;6.226;2023-04-15T13:45:02;2.83;;;1.52;;
76023;SDS011;64719;52.124;6.226;2023-04-15T13:47:29;2.78;;;1.50;;
76023;SDS011;64719;52.124;6.226;2023-04-15T13:49:57;2.25;;;1.30;;
76023;SDS011;64719;52.124;6.226;2023-04-15T13:52:24;3.05;;;1.33;;
76023;SDS011;64719;52.124;6.226;2023-04-15T13:54:50;5.13;;;1.20;;
76023;SDS011;64719;52.124;6.226;2023-04-15T13:57:17;3.92;;;1.25;;
76023;SDS011;64719;52.124;6.226;2023-04-15T13:59:43;2.80;;;1.23;;
76023;SDS011;64719;52.124;6.226;2023-04-15T14:02:10;2.50;;;1.38;;
76023;SDS011;64719;52.124;6.226;2023-04-15T14:04:36;2.65;;;1.33;;
76023;SDS011;64719;52.124;6.226;2023-04-15T14:07:04;2.58;;;1.40;;
76023;SDS011;64719;52.124;6.226;2023-04-15T14:09:31;2.28;;;1.40;;
76023;SDS011;64719;52.124;6.226;2023-04-15T14:11:57;3.33;;;1.50;;
76023;SDS011;64719;52.124;6.226;2023-04-15T14:14:25;2.28;;;1.30;;
76023;SDS011;64719;52.124;6.226;2023-04-15T14:16:51;6.15;;;1.67;;
76023;SDS011;64719;52.124;6.226;2023-04-15T14:19:18;4.03;;;2.00;;
76023;SDS011;64719;52.124;6.226;2023-04-15T14:21:44;3.00;;;1.73;;
76023;SDS011;64719;52.124;6.226;2023-04-15T14:24:12;5.13;;;1.75;;
76023;SDS011;64719;52.124;6.226;2023-04-15T14:26:39;5.75;;;1.65;;
76023;SDS011;64719;52.124;6.226;2023-04-15T14:29:05;8.23;;;2.30;;
76023;SDS011;64719;52.124;6.226;2023-04-15T14:31:32;3.38;;;1.77;;
76023;SDS011;64719;52.124;6.226;2023-04-15T14:33:58;4.50;;;1.88;;
76023;SDS011;64719;52.124;6.226;2023-04-15T14:36:25;2.13;;;1.55;;
76023;SDS011;64719;52.124;6.226;2023-04-15T14:38:52;3.42;;;1.88;;
76023;SDS011;64719;52.124;6.226;2023-04-15T14:41:20;4.00;;;2.70;;
76023;SDS011;64719;52.124;6.226;2023-04-15T14:43:47;6.35;;;2.00;;
76023;SDS011;64719;52.124;6.226;2023-04-15T14:46:13;3.65;;;1.70;;
76023;SDS011;64719;52.124;6.226;2023-04-15T14:48:41;4.03;;;1.90;;
76023;SDS011;64719;52.124;6.226;2023-04-15T14:51:07;5.28;;;1.52;;
76023;SDS011;64719;52.124;6.226;2023-04-15T14:53:34;3.70;;;1.50;;
76023;SDS011;64719;52.124;6.226;2023-04-15T14:56:00;3.10;;;1.40;;
76023;SDS011;64719;52.124;6.226;2023-04-15T14:58:28;3.15;;;1.33;;
76023;SDS011;64719;52.124;6.226;2023-04-15T15:00:55;2.95;;;1.50;;
76023;SDS011;64719;52.124;6.226;2023-04-15T15:03:22;3.55;;;1.67;;